This is the latest recevied weather packets stored in our database for station/object N7WLC. If no packets are shown the sender has not sent any weather packets the latest 10 day(s).
| Time | Temp. | Humidity | Pressure | Rain* | Wind** | Luminosity | Snow |
|---|---|---|---|---|---|---|---|
| 1777717104 | 11.11° C | 96% | 1013 hPa | 0 mm | 0 m/s | - | - |
| 1777715304 | 12.22° C | 95% | 1012.9 hPa | 0 mm | 0 m/s | - | - |
| 1777713505 | 12.22° C | 97% | 1013 hPa | 0 mm | 0 m/s | - | - |
| 1777711705 | 11.67° C | 96% | 1013.2 hPa | 0 mm | 0 m/s | - | - |
| 1777709904 | 12.22° C | 96% | 1013.5 hPa | 0 mm | 0 m/s | - | - |
| 1777708105 | 12.22° C | 95% | 1013.5 hPa | 0 mm | 0 m/s | - | - |
| 1777706305 | 12.22° C | 94% | 1013.7 hPa | 0 mm | 0 m/s | - | - |
| 1777704504 | 12.78° C | 93% | 1013.6 hPa | 0 mm | 0 m/s | - | - |
| 1777702704 | 12.22° C | 94% | 1013.3 hPa | 0 mm | 0 m/s | - | - |
| 1777700904 | 12.22° C | 94% | 1013.5 hPa | 0 mm | 0 m/s | - | - |
| 1777699103 | 12.78° C | 93% | 1013.8 hPa | 0 mm | 0 m/s | - | - |
| 1777697303 | 12.78° C | 92% | 1013.8 hPa | 0 mm | 0 m/s | - | - |
| 1777695504 | 12.78° C | 91% | 1013.6 hPa | 0 mm | 0 m/s | - | - |
| 1777693704 | 13.33° C | 89% | 1013.2 hPa | 0 mm | 0 m/s | - | - |
| 1777691903 | 13.89° C | 86% | 1012.8 hPa | 0 mm | 0 m/s | - | - |
| 1777690104 | 15° C | 82% | 1012.6 hPa | 0 mm | 0 m/s | - | - |
| 1777688304 | 16.67° C | 75% | 1012.6 hPa | 0 mm | 0 m/s | - | - |
| 1777686503 | 17.78° C | 72% | 1012.4 hPa | 0 mm | 0 m/s | - | - |
| 1777684703 | 18.33° C | 70% | 1012.5 hPa | 0 mm | 0 m/s | - | - |
| 1777682904 | 18.89° C | 69% | 1012.5 hPa | 0 mm | 0 m/s | - | - |
| 1777681103 | 20° C | 65% | 1012.3 hPa | 0 mm | 0 m/s | - | - |
| 1777679304 | 20.56° C | 62% | 1012.4 hPa | 0 mm | 0.45 m/s, 249° | - | - |
| 1777677503 | 21.67° C | 59% | 1012.4 hPa | 0 mm | 0.89 m/s, 255° | - | - |
| 1777675704 | 22.22° C | 57% | 1012.5 hPa | 0 mm | 0.89 m/s, 342° | - | - |
| 1777673904 | 23.33° C | 54% | 1012.9 hPa | 0 mm | 0.45 m/s, 273° | - | - |
* Rain latest hour (hover to see other rain measurements)
** Current wind speed in m/s (hover to see current wind gust speed)